Portada
METAR-TAF:

METAR-TAF

Aeroports :

Mahiliou, Bielorússia

latitud: 53-57-18N, longitud: 030-05-42E, altitud: 194 m

Observació

L'informe es va fer fa 3 hores i 54 minuts, a les 13:00 UTC
Vent 10 kt del Sud
Temperatura -1°C
Humitat 80%
Pressió 1004 hPa
Visibilitat: 7000 m

METAR: UMOO 071300Z 17005MPS 7000 NSC M01/M04 Q1004 R13/710069 NOSIG

Hora: 19:54 (16:54 UTC)

Pronòstic

L'informe es va fer fa 5 hores i 52 minuts, a les 11:02 UTC
Pronòstic vàlid del 07 a les 12 UTC al 07 a les 21 UTC
Vent 10 kt del Sud amb ràfegues de 19 kt
Visibilitat: 4000 m
Cel ennuvolat a una alçada de 1500 ft
boirina
Temporalment
l' 07 a les 15 UTC al 07 a les 21 UTC
Vent 14 kt del Oest/Sud-Oest amb ràfegues de 23 kt
Visibilitat: 2100 m
Cel ennuvolat a una alçada de 500 ft
Núvols disperses a una alçada de 2000 ft, Cumulonimbus.
xàfecs de pluja, neu

TAF: UMOO 071102Z 0712/0721 19005G10MPS 4000 BR BKN015 TEMPO 0715/0721 24007G12MPS 2100 -SHRASN BKN005 SCT020CB

Observacions i pronòstics meteorològics de més de 4000 aeroports (METAR i TAF).

Les estacions disponibles són els punts grocs i vermells al mapa.

Posi el ratolí al punt desitjat per veure el nom de l'estació.

Feu clic per veure les observacions i els pronòstics meteorològics.

Per canviar el mapa: feu clic els botons verds amb una creu de color negre per apropar; al botó verd amb un guió per allunyar la imatge; o en les fletxes verdes per a mapes adjacents.


METAR-TAF: